Sunday, July 22, 2018, 8:06 PM EDT
Back to Local

KOXB, Ocean City Municipal Airport

Location: Berlin, MD, United States Lat: 38.317
Local Time: 8:06 PM EDT ( 0:06 GMT) Lon: -75.117
Time Zone: US/Eastern Elev: 13 ft

Show me the last for .
Show Decoded

2018-07-22 19:53 METAR KOXB 222353Z AUTO 15007KT 100V180 6SM BR OVC020 26/24 A2989 RMK AO2 SLP123
                 T02560244 10272 20256 51009 =
2018-07-22 18:53 METAR KOXB 222253Z AUTO VRB06KT 8SM BKN016 BKN110 26/24 A2989 RMK AO2 SLP122
                 T02610244 =
2018-07-22 18:09 METAR KOXB 222209Z AUTO 15008KT 8SM BKN017 26/24 A2989 RMK AO2 T02610244 =
2018-07-22 17:53 METAR KOXB 222153Z AUTO 15008KT 9SM SCT021 27/24 A2988 RMK AO2 SLP119 T02670244
                 =
2018-07-22 16:53 METAR KOXB 222053Z AUTO 14007KT 9SM FEW019 BKN027 27/24 A2987 RMK AO2 SLP114
                 T02720244 55001 =
2018-07-22 16:22 METAR KOXB 222022Z AUTO VRB06KT 10SM SCT021 BKN027 27/24 A2987 RMK AO2 T02670244
                 =
2018-07-22 15:53 METAR KOXB 221953Z AUTO 16008KT 10SM FEW017 SCT023 27/24 A2987 RMK AO2 SLP113
                 T02720244 =
2018-07-22 14:53 METAR KOXB 221853Z AUTO VRB06G15KT 10SM FEW120 27/24 A2985 RMK AO2 SLP109
                 T02670239 =
2018-07-22 13:53 METAR KOXB 221753Z AUTO 14007G15KT 100V170 10SM FEW016 27/24 A2987 RMK AO2
                 SLP115 T02670239 10272 20239 58005 =
2018-07-22 12:53 METAR KOXB 221653Z AUTO 13010G16KT 10SM FEW041 27/24 A2988 RMK AO2 SLP118
                 T02670239 =
2018-07-22 12:42 METAR KOXB 221642Z AUTO 14008G14KT 10SM SCT007 SCT037 27/24 A2988 RMK AO2
                 T02670244 =
2018-07-22 12:25 METAR KOXB 221625Z AUTO 13009G15KT 10SM BKN006 BKN036 27/24 A2989 RMK AO2 CIG
                 005V010 T02670244 =
2018-07-22 12:17 METAR KOXB 221617Z AUTO 14007KT 10SM SCT005 BKN016 BKN022 27/24 A2989 RMK AO2
                 T02670244 =
2018-07-22 11:53 METAR KOXB 221553Z AUTO 14008KT 10SM FEW006 SCT017 BKN034 26/24 A2989 RMK AO2
                 SLP120 T02560239 =
2018-07-22 11:45 METAR KOXB 221545Z AUTO 14007KT 10SM SCT007 SCT027 BKN033 27/24 A2989 RMK AO2
                 T02670244 =
2018-07-22 11:25 METAR KOXB 221525Z AUTO 13008KT 10SM OVC008 26/23 A2989 RMK AO2 CIG 006V012
                 T02560233 =
2018-07-22 10:53 METAR KOXB 221453Z AUTO 13006KT 10SM OVC010 25/23 A2989 RMK AO2 SLP121 T02500228
                 51014 =
2018-07-22 10:08 METAR KOXB 221408Z AUTO 15004KT 10SM OVC013 25/22 A2988 RMK AO2 T02500222 =
2018-07-22 09:53 METAR KOXB 221353Z AUTO 16007KT 10SM OVC016 25/22 A2988 RMK AO2 SLP117 T02500222
                 =
2018-07-22 08:53 METAR KOXB 221253Z AUTO VRB04KT 10SM BKN017 24/22 A2987 RMK AO2 SLP114 T02390217
                 =
2018-07-22 07:53 METAR KOXB 221153Z AUTO VRB04KT 10SM SCT026 24/21 A2985 RMK AO2 SLP107 70149
                 T02390211 10239 20217 51021 =
2018-07-22 07:36 METAR KOXB 221136Z AUTO 20005KT 10SM OVC028 23/21 A2984 RMK AO2 T02280211 =
2018-07-22 06:53 METAR KOXB 221053Z AUTO 21006KT 10SM SCT038 BKN050 22/20 A2983 RMK AO2 SLP102
                 T02220200 =
2018-07-22 06:22 METAR KOXB 221022Z AUTO 21007KT 10SM SCT014 SCT038 22/19 A2982 RMK AO2 T02170194
                 =
2018-07-22 06:11 METAR KOXB 221011Z AUTO 22010KT 10SM BKN014 BKN055 22/19 A2982 RMK AO2 T02170194
                 =
2018-07-22 05:53 METAR KOXB 220953Z AUTO 21010G16KT 10SM OVC015 22/20 A2981 RMK AO2 SLP095
                 T02170200 =
2018-07-22 05:18 METAR KOXB 220918Z AUTO 22010G17KT 10SM OVC015 22/20 A2979 RMK AO2 T02170200 =
2018-07-22 04:53 METAR KOXB 220853Z AUTO 22011KT 10SM BKN014 OVC020 22/20 A2979 RMK AO2 SLP086
                 T02170200 53029 =
2018-07-22 04:43 METAR KOXB 220843Z AUTO 22012G18KT 10SM OVC016 22/20 A2978 RMK AO2 T02170200 =
2018-07-22 03:53 METAR KOXB 220753Z AUTO 22017G26KT 10SM OVC011 22/20 A2975 RMK AO2 PK WND
                 22026/0748 SLP075 T02170200 =
2018-07-22 02:53 METAR KOXB 220653Z AUTO 22017G26KT 10SM OVC010 22/20 A2973 RMK AO2 PK WND
                 22026/0651 SLP067 T02170200 =
2018-07-22 02:22 METAR KOXB 220622Z AUTO 22018G24KT 10SM OVC010 22/20 A2971 RMK AO2 PK WND
                 22026/0609 T02170200 =
2018-07-22 01:53 METAR KOXB 220553Z AUTO 22015G26KT 10SM OVC008 22/21 A2970 RMK AO2 PK WND
                 22027/0506 SLP057 60011 T02170206 10244 20217 53031 =
2018-07-22 00:53 METAR KOXB 220453Z AUTO 22017G28KT 10SM OVC008 22/21 A2967 RMK AO2 PK WND
                 22030/0440 SLP047 T02220211 402440222 =
2018-07-21 23:53 METAR KOXB 220353Z AUTO 20012G21KT 10SM OVC007 23/22 A2964 RMK AO2 SLP036
                 T02280222 =
2018-07-21 22:53 METAR KOXB 220253Z AUTO 20009G22KT 7SM OVC008 24/23 A2961 RMK AO2 RAE23 CIG
                 006V011 SLP026 P0001 60011 T02440233 55005 =
2018-07-21 22:43 METAR KOXB 220243Z AUTO 19008G20KT 160V230 8SM SCT006 OVC011 24/24 A2961 RMK AO2
                 RAE23 CIG 008V015 P0001 T02440239 =
2018-07-21 22:05 METAR KOXB 220205Z AUTO 17010G24KT 130V240 6SM -RA BR OVC006 24/23 A2959 RMK AO2
                 CIG 005V012 P0001 T02390233 =
2018-07-21 21:52 METAR KOXB 220152Z AUTO 14012G28KT 2 1/2SM -RA BR OVC008 24/23 A2959 RMK AO2 PK
                 WND 11029/0113 CIG 005V013 SLP020 P0003 T02390233 =
2018-07-21 21:51 METAR KOXB 220151Z AUTO 14013G28KT 2 1/2SM -RA BR OVC008 24/23 A2959 RMK AO2 PK
                 WND 11029/0113 CIG 005V013 P0003 =
2018-07-21 21:34 METAR KOXB 220134Z AUTO 14012G22KT 5SM -RA BR OVC011 24/23 A2961 RMK AO2 PK WND
                 11029/0113 P0001 T02390233 =
2018-07-21 20:53 METAR KOXB 220053Z AUTO 11021G28KT 4SM -RA BR BKN008 OVC014 24/23 A2962 RMK AO2
                 PK WND 11032/0027 SLP031 P0007 T02390233 =
2018-07-21 20:41 METAR KOXB 220041Z AUTO 11017G27KT 4SM -RA BR OVC012 24/23 A2963 RMK AO2 PK WND
                 11032/0027 P0007 T02390228 =
2018-07-21 20:33 METAR KOXB 220033Z AUTO 11016G32KT 2 1/2SM -RA BR BKN012 OVC017 24/23 A2964 RMK
                 AO2 PK WND 11032/0027 P0007 T02390228 =
2018-07-21 20:20 METAR KOXB 220020Z AUTO 10020G30KT 5SM -RA BR BKN012 OVC020 24/23 A2965 RMK AO2
                 PK WND 10030/0011 P0000 T02390228 =

Support USWX by starting your Amazon purchase here.